sensor_id;sensor_type;location;lat;lon;timestamp;P1;durP1;ratioP1;P2;durP2;ratioP2
8986;SDS011;4529;51.360;12.474;2023-11-18T00:04:29;2.73;;;2.50;;
8986;SDS011;4529;51.360;12.474;2023-11-18T00:09:33;3.00;;;2.70;;
8986;SDS011;4529;51.360;12.474;2023-11-18T00:14:36;3.50;;;2.60;;
8986;SDS011;4529;51.360;12.474;2023-11-18T00:19:40;2.60;;;2.40;;
8986;SDS011;4529;51.360;12.474;2023-11-18T00:24:43;3.47;;;2.30;;
8986;SDS011;4529;51.360;12.474;2023-11-18T00:29:47;4.07;;;2.60;;
8986;SDS011;4529;51.360;12.474;2023-11-18T00:34:50;2.50;;;2.30;;
8986;SDS011;4529;51.360;12.474;2023-11-18T00:39:54;2.50;;;2.30;;
8986;SDS011;4529;51.360;12.474;2023-11-18T00:44:58;2.53;;;2.33;;
8986;SDS011;4529;51.360;12.474;2023-11-18T00:50:01;2.40;;;2.20;;
8986;SDS011;4529;51.360;12.474;2023-11-18T00:55:05;2.40;;;2.20;;
8986;SDS011;4529;51.360;12.474;2023-11-18T01:00:11;4.23;;;2.00;;
8986;SDS011;4529;51.360;12.474;2023-11-18T01:05:16;2.30;;;2.10;;
8986;SDS011;4529;51.360;12.474;2023-11-18T01:10:20;1.97;;;1.77;;
8986;SDS011;4529;51.360;12.474;2023-11-18T01:15:24;2.27;;;2.07;;
8986;SDS011;4529;51.360;12.474;2023-11-18T01:20:27;2.20;;;2.00;;
8986;SDS011;4529;51.360;12.474;2023-11-18T01:25:31;2.20;;;2.00;;
8986;SDS011;4529;51.360;12.474;2023-11-18T01:30:34;4.23;;;2.00;;
8986;SDS011;4529;51.360;12.474;2023-11-18T01:35:38;1.97;;;1.87;;
8986;SDS011;4529;51.360;12.474;2023-11-18T01:40:41;1.90;;;1.80;;
8986;SDS011;4529;51.360;12.474;2023-11-18T01:45:46;1.97;;;1.83;;
8986;SDS011;4529;51.360;12.474;2023-11-18T01:50:49;1.70;;;1.47;;
8986;SDS011;4529;51.360;12.474;2023-11-18T01:55:52;2.23;;;1.80;;
8986;SDS011;4529;51.360;12.474;2023-11-18T02:00:56;2.27;;;2.07;;
8986;SDS011;4529;51.360;12.474;2023-11-18T02:06:00;3.30;;;2.00;;
8986;SDS011;4529;51.360;12.474;2023-11-18T02:11:14;1.90;;;1.80;;
8986;SDS011;4529;51.360;12.474;2023-11-18T02:16:34;4.77;;;2.20;;
8986;SDS011;4529;51.360;12.474;2023-11-18T02:21:38;2.50;;;2.30;;
8986;SDS011;4529;51.360;12.474;2023-11-18T02:26:42;2.97;;;2.27;;
8986;SDS011;4529;51.360;12.474;2023-11-18T02:31:46;2.40;;;2.20;;
8986;SDS011;4529;51.360;12.474;2023-11-18T02:36:49;1.97;;;1.80;;
8986;SDS011;4529;51.360;12.474;2023-11-18T02:41:53;2.40;;;2.20;;
8986;SDS011;4529;51.360;12.474;2023-11-18T02:46:57;2.20;;;1.80;;
8986;SDS011;4529;51.360;12.474;2023-11-18T02:52:01;2.97;;;1.93;;
8986;SDS011;4529;51.360;12.474;2023-11-18T02:57:05;2.77;;;1.80;;
8986;SDS011;4529;51.360;12.474;2023-11-18T03:02:08;2.00;;;1.90;;
8986;SDS011;4529;51.360;12.474;2023-11-18T03:07:12;2.00;;;1.90;;
8986;SDS011;4529;51.360;12.474;2023-11-18T03:12:15;3.80;;;2.37;;
8986;SDS011;4529;51.360;12.474;2023-11-18T03:17:19;2.83;;;2.50;;
8986;SDS011;4529;51.360;12.474;2023-11-18T03:22:22;2.87;;;2.50;;
8986;SDS011;4529;51.360;12.474;2023-11-18T03:27:26;4.47;;;2.80;;
8986;SDS011;4529;51.360;12.474;2023-11-18T03:32:30;2.93;;;2.40;;
8986;SDS011;4529;51.360;12.474;2023-11-18T03:37:34;3.00;;;2.70;;
8986;SDS011;4529;51.360;12.474;2023-11-18T03:42:37;3.40;;;2.77;;
8986;SDS011;4529;51.360;12.474;2023-11-18T03:47:40;4.20;;;2.60;;
8986;SDS011;4529;51.360;12.474;2023-11-18T03:52:44;2.50;;;2.30;;
8986;SDS011;4529;51.360;12.474;2023-11-18T03:57:48;2.60;;;2.40;;
8986;SDS011;4529;51.360;12.474;2023-11-18T04:02:51;2.40;;;2.20;;
8986;SDS011;4529;51.360;12.474;2023-11-18T04:07:55;4.57;;;2.40;;
8986;SDS011;4529;51.360;12.474;2023-11-18T04:12:58;2.80;;;2.50;;
8986;SDS011;4529;51.360;12.474;2023-11-18T04:18:02;4.23;;;2.70;;
8986;SDS011;4529;51.360;12.474;2023-11-18T04:23:05;3.60;;;2.77;;
8986;SDS011;4529;51.360;12.474;2023-11-18T04:28:09;3.00;;;2.70;;
8986;SDS011;4529;51.360;12.474;2023-11-18T04:33:13;3.33;;;3.03;;
8986;SDS011;4529;51.360;12.474;2023-11-18T04:38:17;3.90;;;3.50;;
8986;SDS011;4529;51.360;12.474;2023-11-18T04:43:23;3.50;;;3.20;;
8986;SDS011;4529;51.360;12.474;2023-11-18T04:48:27;3.80;;;3.40;;
8986;SDS011;4529;51.360;12.474;2023-11-18T04:53:31;4.23;;;3.40;;
8986;SDS011;4529;51.360;12.474;2023-11-18T04:58:37;4.23;;;3.57;;
8986;SDS011;4529;51.360;12.474;2023-11-18T05:03:42;3.40;;;3.10;;
8986;SDS011;4529;51.360;12.474;2023-11-18T05:08:47;4.40;;;3.20;;
8986;SDS011;4529;51.360;12.474;2023-11-18T05:13:51;4.67;;;3.40;;
8986;SDS011;4529;51.360;12.474;2023-11-18T05:18:54;3.40;;;3.03;;
8986;SDS011;4529;51.360;12.474;2023-11-18T05:23:58;5.97;;;3.43;;
8986;SDS011;4529;51.360;12.474;2023-11-18T05:29:01;3.80;;;3.40;;
8986;SDS011;4529;51.360;12.474;2023-11-18T05:34:04;4.50;;;3.87;;
8986;SDS011;4529;51.360;12.474;2023-11-18T05:39:08;6.27;;;4.30;;
8986;SDS011;4529;51.360;12.474;2023-11-18T05:44:12;4.27;;;3.87;;
8986;SDS011;4529;51.360;12.474;2023-11-18T05:49:16;5.37;;;4.43;;
8986;SDS011;4529;51.360;12.474;2023-11-18T05:54:20;5.03;;;4.37;;
8986;SDS011;4529;51.360;12.474;2023-11-18T05:59:23;5.17;;;4.37;;
8986;SDS011;4529;51.360;12.474;2023-11-18T06:04:27;4.80;;;4.03;;
8986;SDS011;4529;51.360;12.474;2023-11-18T06:09:31;4.27;;;3.80;;
8986;SDS011;4529;51.360;12.474;2023-11-18T06:14:35;4.40;;;4.00;;
8986;SDS011;4529;51.360;12.474;2023-11-18T06:19:41;4.23;;;3.83;;
8986;SDS011;4529;51.360;12.474;2023-11-18T06:24:44;4.60;;;3.50;;
8986;SDS011;4529;51.360;12.474;2023-11-18T06:29:48;7.87;;;3.90;;
8986;SDS011;4529;51.360;12.474;2023-11-18T06:34:51;5.87;;;4.30;;
8986;SDS011;4529;51.360;12.474;2023-11-18T06:39:54;5.20;;;4.70;;
8986;SDS011;4529;51.360;12.474;2023-11-18T06:44:58;6.57;;;4.97;;
8986;SDS011;4529;51.360;12.474;2023-11-18T06:50:02;6.80;;;5.00;;
8986;SDS011;4529;51.360;12.474;2023-11-18T06:55:06;6.53;;;4.83;;
8986;SDS011;4529;51.360;12.474;2023-11-18T07:00:10;5.60;;;4.63;;
8986;SDS011;4529;51.360;12.474;2023-11-18T07:05:13;5.17;;;4.50;;
8986;SDS011;4529;51.360;12.474;2023-11-18T07:10:17;5.33;;;4.73;;
8986;SDS011;4529;51.360;12.474;2023-11-18T07:15:20;5.03;;;4.40;;
8986;SDS011;4529;51.360;12.474;2023-11-18T07:20:24;4.93;;;4.00;;
8986;SDS011;4529;51.360;12.474;2023-11-18T07:25:28;5.33;;;4.43;;
8986;SDS011;4529;51.360;12.474;2023-11-18T07:30:31;6.60;;;5.13;;
8986;SDS011;4529;51.360;12.474;2023-11-18T07:35:35;7.53;;;5.00;;
8986;SDS011;4529;51.360;12.474;2023-11-18T07:40:38;9.53;;;5.87;;
8986;SDS011;4529;51.360;12.474;2023-11-18T07:45:42;11.17;;;7.63;;
8986;SDS011;4529;51.360;12.474;2023-11-18T07:50:46;11.23;;;8.40;;
8986;SDS011;4529;51.360;12.474;2023-11-18T07:55:50;10.80;;;5.83;;
8986;SDS011;4529;51.360;12.474;2023-11-18T08:00:54;8.37;;;5.50;;
8986;SDS011;4529;51.360;12.474;2023-11-18T08:05:58;11.93;;;5.60;;
8986;SDS011;4529;51.360;12.474;2023-11-18T08:11:03;9.50;;;6.40;;
8986;SDS011;4529;51.360;12.474;2023-11-18T08:16:06;8.47;;;5.23;;
8986;SDS011;4529;51.360;12.474;2023-11-18T08:21:09;11.90;;;7.20;;
8986;SDS011;4529;51.360;12.474;2023-11-18T08:26:13;13.07;;;9.33;;
8986;SDS011;4529;51.360;12.474;2023-11-18T08:31:16;15.57;;;9.90;;
8986;SDS011;4529;51.360;12.474;2023-11-18T08:36:20;12.13;;;8.73;;
8986;SDS011;4529;51.360;12.474;2023-11-18T08:41:25;13.70;;;9.20;;
8986;SDS011;4529;51.360;12.474;2023-11-18T08:46:28;12.37;;;8.70;;
8986;SDS011;4529;51.360;12.474;2023-11-18T08:51:31;12.10;;;8.57;;
8986;SDS011;4529;51.360;12.474;2023-11-18T08:56:35;12.77;;;8.73;;
8986;SDS011;4529;51.360;12.474;2023-11-18T09:01:38;13.90;;;9.00;;
8986;SDS011;4529;51.360;12.474;2023-11-18T09:06:42;13.60;;;9.17;;
8986;SDS011;4529;51.360;12.474;2023-11-18T09:11:46;12.00;;;8.77;;
8986;SDS011;4529;51.360;12.474;2023-11-18T09:16:51;11.93;;;9.07;;
8986;SDS011;4529;51.360;12.474;2023-11-18T09:21:54;10.80;;;7.63;;
8986;SDS011;4529;51.360;12.474;2023-11-18T09:26:58;12.10;;;7.80;;
8986;SDS011;4529;51.360;12.474;2023-11-18T09:32:01;11.03;;;7.37;;
8986;SDS011;4529;51.360;12.474;2023-11-18T09:37:05;10.00;;;7.30;;
8986;SDS011;4529;51.360;12.474;2023-11-18T09:42:08;10.83;;;7.60;;
8986;SDS011;4529;51.360;12.474;2023-11-18T09:47:12;9.43;;;7.10;;
8986;SDS011;4529;51.360;12.474;2023-11-18T09:52:16;10.83;;;7.20;;
8986;SDS011;4529;51.360;12.474;2023-11-18T09:57:43;8.97;;;6.60;;
8986;SDS011;4529;51.360;12.474;2023-11-18T10:02:38;9.03;;;6.30;;
8986;SDS011;4529;51.360;12.474;2023-11-18T10:07:42;6.83;;;5.57;;
8986;SDS011;4529;51.360;12.474;2023-11-18T10:12:49;7.93;;;5.57;;
8986;SDS011;4529;51.360;12.474;2023-11-18T10:17:49;6.50;;;5.03;;
8986;SDS011;4529;51.360;12.474;2023-11-18T10:23:08;7.00;;;5.60;;
8986;SDS011;4529;51.360;12.474;2023-11-18T10:33:34;7.87;;;5.37;;
8986;SDS011;4529;51.360;12.474;2023-11-18T10:38:40;6.47;;;5.03;;
8986;SDS011;4529;51.360;12.474;2023-11-18T10:43:44;4.27;;;3.50;;
8986;SDS011;4529;51.360;12.474;2023-11-18T10:48:50;3.63;;;3.33;;
8986;SDS011;4529;51.360;12.474;2023-11-18T10:53:53;2.80;;;2.60;;
8986;SDS011;4529;51.360;12.474;2023-11-18T10:58:57;5.27;;;3.90;;
8986;SDS011;4529;51.360;12.474;2023-11-18T11:04:00;4.83;;;4.10;;
8986;SDS011;4529;51.360;12.474;2023-11-18T11:09:04;6.37;;;4.07;;
8986;SDS011;4529;51.360;12.474;2023-11-18T11:14:08;7.53;;;4.63;;
8986;SDS011;4529;51.360;12.474;2023-11-18T11:30:23;5.53;;;4.10;;
8986;SDS011;4529;51.360;12.474;2023-11-18T11:35:30;5.73;;;4.40;;
8986;SDS011;4529;51.360;12.474;2023-11-18T11:40:31;5.43;;;4.50;;
8986;SDS011;4529;51.360;12.474;2023-11-18T11:45:34;5.73;;;4.53;;
8986;SDS011;4529;51.360;12.474;2023-11-18T11:50:38;4.93;;;4.43;;
8986;SDS011;4529;51.360;12.474;2023-11-18T11:55:45;7.93;;;5.40;;
8986;SDS011;4529;51.360;12.474;2023-11-18T12:00:47;7.70;;;5.47;;
8986;SDS011;4529;51.360;12.474;2023-11-18T12:05:54;6.17;;;5.23;;
8986;SDS011;4529;51.360;12.474;2023-11-18T12:10:57;8.07;;;5.70;;
8986;SDS011;4529;51.360;12.474;2023-11-18T12:16:01;9.10;;;5.80;;
8986;SDS011;4529;51.360;12.474;2023-11-18T12:21:05;8.23;;;6.13;;
8986;SDS011;4529;51.360;12.474;2023-11-18T12:31:42;8.13;;;6.20;;
8986;SDS011;4529;51.360;12.474;2023-11-18T12:37:07;9.23;;;6.43;;
8986;SDS011;4529;51.360;12.474;2023-11-18T12:43:24;9.67;;;7.20;;
8986;SDS011;4529;51.360;12.474;2023-11-18T12:47:56;8.93;;;7.13;;
8986;SDS011;4529;51.360;12.474;2023-11-18T12:52:59;7.73;;;6.23;;
8986;SDS011;4529;51.360;12.474;2023-11-18T12:58:04;8.60;;;5.93;;
8986;SDS011;4529;51.360;12.474;2023-11-18T13:03:08;6.90;;;5.90;;
8986;SDS011;4529;51.360;12.474;2023-11-18T13:08:12;10.43;;;6.30;;
8986;SDS011;4529;51.360;12.474;2023-11-18T13:13:16;7.53;;;5.70;;
8986;SDS011;4529;51.360;12.474;2023-11-18T13:18:19;7.27;;;6.20;;
8986;SDS011;4529;51.360;12.474;2023-11-18T13:23:26;8.37;;;6.07;;
8986;SDS011;4529;51.360;12.474;2023-11-18T13:28:29;8.70;;;6.33;;
8986;SDS011;4529;51.360;12.474;2023-11-18T13:33:36;7.87;;;6.20;;
8986;SDS011;4529;51.360;12.474;2023-11-18T13:38:40;6.40;;;5.20;;
8986;SDS011;4529;51.360;12.474;2023-11-18T13:43:43;6.83;;;5.53;;
8986;SDS011;4529;51.360;12.474;2023-11-18T13:48:47;8.53;;;5.80;;
8986;SDS011;4529;51.360;12.474;2023-11-18T13:53:50;7.60;;;6.20;;
8986;SDS011;4529;51.360;12.474;2023-11-18T13:58:53;9.07;;;6.50;;
8986;SDS011;4529;51.360;12.474;2023-11-18T14:03:57;30.87;;;7.97;;
8986;SDS011;4529;51.360;12.474;2023-11-18T14:09:02;9.10;;;6.37;;
8986;SDS011;4529;51.360;12.474;2023-11-18T14:14:06;10.20;;;6.20;;
8986;SDS011;4529;51.360;12.474;2023-11-18T14:19:09;8.77;;;6.60;;
8986;SDS011;4529;51.360;12.474;2023-11-18T14:24:13;9.97;;;6.80;;
8986;SDS011;4529;51.360;12.474;2023-11-18T14:29:16;8.93;;;6.17;;
8986;SDS011;4529;51.360;12.474;2023-11-18T14:34:20;7.37;;;6.47;;
8986;SDS011;4529;51.360;12.474;2023-11-18T14:39:23;7.77;;;6.67;;
8986;SDS011;4529;51.360;12.474;2023-11-18T14:44:26;8.23;;;6.67;;
8986;SDS011;4529;51.360;12.474;2023-11-18T14:49:30;9.03;;;7.10;;
8986;SDS011;4529;51.360;12.474;2023-11-18T14:54:34;7.83;;;7.00;;
8986;SDS011;4529;51.360;12.474;2023-11-18T14:59:38;9.87;;;6.70;;
8986;SDS011;4529;51.360;12.474;2023-11-18T15:04:42;10.33;;;7.10;;
8986;SDS011;4529;51.360;12.474;2023-11-18T15:09:46;15.07;;;7.90;;
8986;SDS011;4529;51.360;12.474;2023-11-18T15:14:50;11.63;;;8.20;;
8986;SDS011;4529;51.360;12.474;2023-11-18T15:19:53;13.77;;;8.70;;
8986;SDS011;4529;51.360;12.474;2023-11-18T15:24:57;11.07;;;8.17;;
8986;SDS011;4529;51.360;12.474;2023-11-18T15:30:02;11.97;;;8.17;;
8986;SDS011;4529;51.360;12.474;2023-11-18T15:35:05;11.77;;;7.67;;
8986;SDS011;4529;51.360;12.474;2023-11-18T15:40:09;11.63;;;7.90;;
8986;SDS011;4529;51.360;12.474;2023-11-18T15:45:13;13.10;;;8.20;;
8986;SDS011;4529;51.360;12.474;2023-11-18T15:50:16;14.77;;;8.13;;
8986;SDS011;4529;51.360;12.474;2023-11-18T15:55:19;14.33;;;7.70;;
8986;SDS011;4529;51.360;12.474;2023-11-18T16:00:23;10.43;;;7.43;;
8986;SDS011;4529;51.360;12.474;2023-11-18T16:05:26;12.47;;;7.97;;
8986;SDS011;4529;51.360;12.474;2023-11-18T16:10:29;11.27;;;7.83;;
8986;SDS011;4529;51.360;12.474;2023-11-18T16:15:33;11.97;;;7.60;;
8986;SDS011;4529;51.360;12.474;2023-11-18T16:20:38;9.27;;;7.60;;
8986;SDS011;4529;51.360;12.474;2023-11-18T16:25:42;12.60;;;9.10;;
8986;SDS011;4529;51.360;12.474;2023-11-18T16:30:45;14.10;;;8.93;;
8986;SDS011;4529;51.360;12.474;2023-11-18T16:35:49;10.77;;;8.20;;
8986;SDS011;4529;51.360;12.474;2023-11-18T16:40:52;10.27;;;8.10;;
8986;SDS011;4529;51.360;12.474;2023-11-18T16:45:56;12.17;;;8.63;;
8986;SDS011;4529;51.360;12.474;2023-11-18T16:50:59;9.37;;;7.87;;
8986;SDS011;4529;51.360;12.474;2023-11-18T16:56:03;9.60;;;7.30;;
8986;SDS011;4529;51.360;12.474;2023-11-18T17:07:02;10.13;;;8.30;;
8986;SDS011;4529;51.360;12.474;2023-11-18T17:12:06;13.83;;;10.97;;
8986;SDS011;4529;51.360;12.474;2023-11-18T17:17:09;15.43;;;11.20;;
8986;SDS011;4529;51.360;12.474;2023-11-18T17:22:13;13.07;;;9.77;;
8986;SDS011;4529;51.360;12.474;2023-11-18T17:27:16;11.43;;;9.13;;
8986;SDS011;4529;51.360;12.474;2023-11-18T17:32:20;13.30;;;9.43;;
8986;SDS011;4529;51.360;12.474;2023-11-18T17:37:23;13.97;;;9.97;;
8986;SDS011;4529;51.360;12.474;2023-11-18T17:42:27;18.43;;;12.33;;
8986;SDS011;4529;51.360;12.474;2023-11-18T17:47:31;19.57;;;13.00;;
8986;SDS011;4529;51.360;12.474;2023-11-18T17:52:35;14.93;;;10.20;;
8986;SDS011;4529;51.360;12.474;2023-11-18T17:57:39;12.80;;;9.80;;
8986;SDS011;4529;51.360;12.474;2023-11-18T18:02:43;10.37;;;8.20;;
8986;SDS011;4529;51.360;12.474;2023-11-18T18:07:47;10.13;;;8.40;;
8986;SDS011;4529;51.360;12.474;2023-11-18T18:12:52;11.10;;;8.60;;
8986;SDS011;4529;51.360;12.474;2023-11-18T18:17:56;10.60;;;7.70;;
8986;SDS011;4529;51.360;12.474;2023-11-18T18:23:00;9.67;;;7.73;;
8986;SDS011;4529;51.360;12.474;2023-11-18T18:28:04;9.83;;;7.77;;
8986;SDS011;4529;51.360;12.474;2023-11-18T18:33:08;8.00;;;6.60;;
8986;SDS011;4529;51.360;12.474;2023-11-18T18:38:13;8.80;;;6.23;;
8986;SDS011;4529;51.360;12.474;2023-11-18T18:43:17;10.43;;;6.30;;
8986;SDS011;4529;51.360;12.474;2023-11-18T18:48:20;7.10;;;6.07;;
8986;SDS011;4529;51.360;12.474;2023-11-18T18:53:24;6.10;;;5.17;;
8986;SDS011;4529;51.360;12.474;2023-11-18T18:58:28;5.80;;;4.83;;
8986;SDS011;4529;51.360;12.474;2023-11-18T19:03:32;8.57;;;5.50;;
8986;SDS011;4529;51.360;12.474;2023-11-18T19:08:36;6.90;;;5.90;;
8986;SDS011;4529;51.360;12.474;2023-11-18T19:13:40;6.80;;;5.80;;
8986;SDS011;4529;51.360;12.474;2023-11-18T19:18:44;6.97;;;5.67;;
8986;SDS011;4529;51.360;12.474;2023-11-18T19:23:49;8.90;;;5.97;;
8986;SDS011;4529;51.360;12.474;2023-11-18T19:28:54;7.30;;;6.10;;
8986;SDS011;4529;51.360;12.474;2023-11-18T19:33:57;6.97;;;6.17;;
8986;SDS011;4529;51.360;12.474;2023-11-18T19:39:01;8.03;;;6.47;;
8986;SDS011;4529;51.360;12.474;2023-11-18T19:44:05;7.43;;;6.30;;
8986;SDS011;4529;51.360;12.474;2023-11-18T19:49:08;8.53;;;6.73;;
8986;SDS011;4529;51.360;12.474;2023-11-18T19:54:13;8.20;;;6.53;;
8986;SDS011;4529;51.360;12.474;2023-11-18T19:59:17;8.03;;;6.43;;
8986;SDS011;4529;51.360;12.474;2023-11-18T20:04:21;8.17;;;7.00;;
8986;SDS011;4529;51.360;12.474;2023-11-18T20:09:25;7.40;;;6.20;;
8986;SDS011;4529;51.360;12.474;2023-11-18T20:14:29;8.23;;;6.53;;
8986;SDS011;4529;51.360;12.474;2023-11-18T20:19:34;8.33;;;5.90;;
8986;SDS011;4529;51.360;12.474;2023-11-18T20:24:38;7.73;;;6.37;;
8986;SDS011;4529;51.360;12.474;2023-11-18T20:29:42;8.03;;;6.60;;
8986;SDS011;4529;51.360;12.474;2023-11-18T20:34:45;8.77;;;6.53;;
8986;SDS011;4529;51.360;12.474;2023-11-18T20:39:49;7.87;;;6.43;;
8986;SDS011;4529;51.360;12.474;2023-11-18T20:44:52;7.30;;;5.80;;
8986;SDS011;4529;51.360;12.474;2023-11-18T20:49:56;6.87;;;5.70;;
8986;SDS011;4529;51.360;12.474;2023-11-18T20:54:59;8.60;;;6.07;;
8986;SDS011;4529;51.360;12.474;2023-11-18T21:00:06;7.20;;;5.47;;
8986;SDS011;4529;51.360;12.474;2023-11-18T21:05:10;7.07;;;5.27;;
8986;SDS011;4529;51.360;12.474;2023-11-18T21:10:14;6.83;;;5.80;;
8986;SDS011;4529;51.360;12.474;2023-11-18T21:15:17;7.23;;;5.73;;
8986;SDS011;4529;51.360;12.474;2023-11-18T21:20:21;6.60;;;5.43;;
8986;SDS011;4529;51.360;12.474;2023-11-18T21:25:24;6.70;;;5.57;;
8986;SDS011;4529;51.360;12.474;2023-11-18T21:30:27;5.20;;;4.63;;
8986;SDS011;4529;51.360;12.474;2023-11-18T21:35:31;7.83;;;5.33;;
8986;SDS011;4529;51.360;12.474;2023-11-18T21:40:35;7.00;;;5.53;;
8986;SDS011;4529;51.360;12.474;2023-11-18T21:45:39;6.03;;;5.00;;
8986;SDS011;4529;51.360;12.474;2023-11-18T21:50:42;6.90;;;5.00;;
8986;SDS011;4529;51.360;12.474;2023-11-18T21:55:46;5.47;;;4.80;;
8986;SDS011;4529;51.360;12.474;2023-11-18T22:00:50;6.07;;;4.60;;
8986;SDS011;4529;51.360;12.474;2023-11-18T22:05:54;5.13;;;4.63;;
8986;SDS011;4529;51.360;12.474;2023-11-18T22:10:58;6.27;;;4.17;;
8986;SDS011;4529;51.360;12.474;2023-11-18T22:16:03;5.93;;;4.67;;
8986;SDS011;4529;51.360;12.474;2023-11-18T22:21:07;4.70;;;4.03;;
8986;SDS011;4529;51.360;12.474;2023-11-18T22:26:11;4.93;;;4.00;;
8986;SDS011;4529;51.360;12.474;2023-11-18T22:31:16;5.17;;;4.27;;
8986;SDS011;4529;51.360;12.474;2023-11-18T22:36:19;6.17;;;4.63;;
8986;SDS011;4529;51.360;12.474;2023-11-18T22:41:24;4.83;;;4.33;;
8986;SDS011;4529;51.360;12.474;2023-11-18T22:46:28;7.87;;;4.30;;
8986;SDS011;4529;51.360;12.474;2023-11-18T22:51:32;4.40;;;3.90;;
8986;SDS011;4529;51.360;12.474;2023-11-18T22:56:37;5.43;;;3.77;;
8986;SDS011;4529;51.360;12.474;2023-11-18T23:01:41;3.37;;;3.10;;
8986;SDS011;4529;51.360;12.474;2023-11-18T23:06:45;3.20;;;2.90;;
8986;SDS011;4529;51.360;12.474;2023-11-18T23:11:48;2.90;;;2.70;;
8986;SDS011;4529;51.360;12.474;2023-11-18T23:16:52;3.23;;;2.90;;
8986;SDS011;4529;51.360;12.474;2023-11-18T23:21:55;3.77;;;3.03;;
8986;SDS011;4529;51.360;12.474;2023-11-18T23:26:59;3.50;;;3.20;;
8986;SDS011;4529;51.360;12.474;2023-11-18T23:32:02;3.30;;;3.00;;
8986;SDS011;4529;51.360;12.474;2023-11-18T23:37:09;2.67;;;2.47;;
8986;SDS011;4529;51.360;12.474;2023-11-18T23:42:12;2.77;;;2.57;;
8986;SDS011;4529;51.360;12.474;2023-11-18T23:47:15;3.10;;;2.80;;
8986;SDS011;4529;51.360;12.474;2023-11-18T23:52:20;2.60;;;2.40;;
